sensor_id;sensor_type;location;lat;lon;timestamp;P1;durP1;ratioP1;P2;durP2;ratioP2
11988;SDS011;6054;50.966;7.094;2023-11-19T00:00:21;1.58;;;0.88;;
11988;SDS011;6054;50.966;7.094;2023-11-19T00:02:49;0.60;;;0.60;;
11988;SDS011;6054;50.966;7.094;2023-11-19T00:05:16;1.65;;;0.60;;
11988;SDS011;6054;50.966;7.094;2023-11-19T00:42:45;0.63;;;0.60;;
11988;SDS011;6054;50.966;7.094;2023-11-19T00:45:38;1.48;;;0.50;;
11988;SDS011;6054;50.966;7.094;2023-11-19T00:48:10;0.60;;;0.60;;
11988;SDS011;6054;50.966;7.094;2023-11-19T05:27:55;11.32;;;2.38;;
11988;SDS011;6054;50.966;7.094;2023-11-19T05:30:25;16.02;;;2.30;;
11988;SDS011;6054;50.966;7.094;2023-11-19T05:32:52;12.32;;;2.10;;
11988;SDS011;6054;50.966;7.094;2023-11-19T05:35:19;8.07;;;2.15;;
11988;SDS011;6054;50.966;7.094;2023-11-19T05:37:46;9.18;;;1.70;;
11988;SDS011;6054;50.966;7.094;2023-11-19T05:40:15;12.27;;;2.28;;
11988;SDS011;6054;50.966;7.094;2023-11-19T05:42:43;10.63;;;2.67;;
11988;SDS011;6054;50.966;7.094;2023-11-19T05:45:11;10.85;;;2.33;;
11988;SDS011;6054;50.966;7.094;2023-11-19T05:47:38;12.48;;;2.38;;
11988;SDS011;6054;50.966;7.094;2023-11-19T05:50:05;13.25;;;2.85;;
11988;SDS011;6054;50.966;7.094;2023-11-19T05:52:33;10.02;;;2.10;;
11988;SDS011;6054;50.966;7.094;2023-11-19T05:55:00;10.70;;;2.95;;
11988;SDS011;6054;50.966;7.094;2023-11-19T05:57:31;12.52;;;1.95;;
11988;SDS011;6054;50.966;7.094;2023-11-19T06:00:01;11.60;;;2.67;;
11988;SDS011;6054;50.966;7.094;2023-11-19T06:02:32;14.98;;;2.78;;
11988;SDS011;6054;50.966;7.094;2023-11-19T06:04:59;11.80;;;2.58;;
11988;SDS011;6054;50.966;7.094;2023-11-19T06:07:26;15.77;;;2.45;;
11988;SDS011;6054;50.966;7.094;2023-11-19T06:09:53;17.55;;;2.92;;
11988;SDS011;6054;50.966;7.094;2023-11-19T06:12:20;12.35;;;2.50;;
11988;SDS011;6054;50.966;7.094;2023-11-19T06:14:47;16.05;;;2.85;;
11988;SDS011;6054;50.966;7.094;2023-11-19T06:17:18;12.80;;;2.55;;
11988;SDS011;6054;50.966;7.094;2023-11-19T06:19:45;10.75;;;2.10;;
11988;SDS011;6054;50.966;7.094;2023-11-19T06:22:12;10.15;;;2.30;;
11988;SDS011;6054;50.966;7.094;2023-11-19T06:24:39;12.90;;;2.20;;
11988;SDS011;6054;50.966;7.094;2023-11-19T06:27:06;8.63;;;1.92;;
11988;SDS011;6054;50.966;7.094;2023-11-19T06:29:32;16.73;;;3.00;;
11988;SDS011;6054;50.966;7.094;2023-11-19T06:32:02;17.88;;;2.72;;
11988;SDS011;6054;50.966;7.094;2023-11-19T06:34:31;8.93;;;2.28;;
11988;SDS011;6054;50.966;7.094;2023-11-19T06:36:58;12.35;;;2.72;;
11988;SDS011;6054;50.966;7.094;2023-11-19T06:39:26;15.27;;;2.50;;
11988;SDS011;6054;50.966;7.094;2023-11-19T06:41:53;14.57;;;2.65;;
11988;SDS011;6054;50.966;7.094;2023-11-19T06:44:19;17.10;;;2.42;;
11988;SDS011;6054;50.966;7.094;2023-11-19T06:46:48;14.32;;;2.53;;
11988;SDS011;6054;50.966;7.094;2023-11-19T06:49:17;20.00;;;3.30;;
11988;SDS011;6054;50.966;7.094;2023-11-19T06:51:46;14.95;;;2.75;;
11988;SDS011;6054;50.966;7.094;2023-11-19T06:54:15;13.35;;;2.40;;
11988;SDS011;6054;50.966;7.094;2023-11-19T06:56:42;14.90;;;3.15;;
11988;SDS011;6054;50.966;7.094;2023-11-19T06:59:09;18.05;;;3.05;;
11988;SDS011;6054;50.966;7.094;2023-11-19T07:01:36;13.75;;;2.92;;
11988;SDS011;6054;50.966;7.094;2023-11-19T07:04:03;16.95;;;3.28;;
11988;SDS011;6054;50.966;7.094;2023-11-19T07:06:34;10.98;;;2.75;;
11988;SDS011;6054;50.966;7.094;2023-11-19T07:09:02;14.98;;;2.60;;
11988;SDS011;6054;50.966;7.094;2023-11-19T07:11:34;12.73;;;2.42;;
11988;SDS011;6054;50.966;7.094;2023-11-19T07:14:03;10.77;;;3.00;;
11988;SDS011;6054;50.966;7.094;2023-11-19T07:16:31;14.45;;;2.95;;
11988;SDS011;6054;50.966;7.094;2023-11-19T07:18:59;11.85;;;2.63;;
11988;SDS011;6054;50.966;7.094;2023-11-19T07:21:26;17.50;;;2.90;;
11988;SDS011;6054;50.966;7.094;2023-11-19T07:23:55;21.80;;;2.97;;
11988;SDS011;6054;50.966;7.094;2023-11-19T07:26:23;13.52;;;3.42;;
11988;SDS011;6054;50.966;7.094;2023-11-19T07:28:50;16.52;;;2.65;;
11988;SDS011;6054;50.966;7.094;2023-11-19T07:31:17;11.18;;;2.53;;
11988;SDS011;6054;50.966;7.094;2023-11-19T07:33:44;17.30;;;2.88;;
11988;SDS011;6054;50.966;7.094;2023-11-19T07:36:12;12.15;;;2.83;;
11988;SDS011;6054;50.966;7.094;2023-11-19T07:38:39;12.30;;;2.38;;
11988;SDS011;6054;50.966;7.094;2023-11-19T07:41:06;11.50;;;2.60;;
11988;SDS011;6054;50.966;7.094;2023-11-19T07:43:36;16.40;;;2.70;;
11988;SDS011;6054;50.966;7.094;2023-11-19T07:46:03;14.85;;;3.20;;
11988;SDS011;6054;50.966;7.094;2023-11-19T07:48:32;15.63;;;2.58;;
11988;SDS011;6054;50.966;7.094;2023-11-19T07:51:00;12.75;;;3.05;;
11988;SDS011;6054;50.966;7.094;2023-11-19T07:53:26;14.23;;;2.92;;
11988;SDS011;6054;50.966;7.094;2023-11-19T07:55:53;14.75;;;3.03;;
11988;SDS011;6054;50.966;7.094;2023-11-19T07:58:20;11.90;;;2.67;;
11988;SDS011;6054;50.966;7.094;2023-11-19T08:00:48;16.83;;;3.30;;
11988;SDS011;6054;50.966;7.094;2023-11-19T08:03:15;16.75;;;3.05;;
11988;SDS011;6054;50.966;7.094;2023-11-19T08:05:42;14.18;;;2.92;;
11988;SDS011;6054;50.966;7.094;2023-11-19T08:08:09;18.63;;;2.80;;
11988;SDS011;6054;50.966;7.094;2023-11-19T08:10:36;17.92;;;3.00;;
11988;SDS011;6054;50.966;7.094;2023-11-19T08:13:03;11.65;;;2.72;;
11988;SDS011;6054;50.966;7.094;2023-11-19T08:15:30;15.95;;;3.58;;
11988;SDS011;6054;50.966;7.094;2023-11-19T08:17:58;13.82;;;2.70;;
11988;SDS011;6054;50.966;7.094;2023-11-19T08:20:25;21.45;;;3.17;;
11988;SDS011;6054;50.966;7.094;2023-11-19T08:22:52;17.58;;;3.50;;
11988;SDS011;6054;50.966;7.094;2023-11-19T08:25:19;14.00;;;2.90;;
11988;SDS011;6054;50.966;7.094;2023-11-19T08:27:45;12.75;;;2.40;;
11988;SDS011;6054;50.966;7.094;2023-11-19T08:30:12;11.23;;;2.28;;
11988;SDS011;6054;50.966;7.094;2023-11-19T08:32:40;13.00;;;3.35;;
11988;SDS011;6054;50.966;7.094;2023-11-19T08:35:08;18.85;;;2.97;;
11988;SDS011;6054;50.966;7.094;2023-11-19T08:37:35;16.58;;;3.20;;
11988;SDS011;6054;50.966;7.094;2023-11-19T08:40:04;16.63;;;3.15;;
11988;SDS011;6054;50.966;7.094;2023-11-19T08:42:32;15.07;;;3.33;;
11988;SDS011;6054;50.966;7.094;2023-11-19T08:44:59;10.73;;;2.45;;
11988;SDS011;6054;50.966;7.094;2023-11-19T08:47:26;8.30;;;2.30;;
11988;SDS011;6054;50.966;7.094;2023-11-19T08:49:52;10.38;;;2.80;;
11988;SDS011;6054;50.966;7.094;2023-11-19T08:52:21;15.20;;;2.95;;
11988;SDS011;6054;50.966;7.094;2023-11-19T08:54:48;14.60;;;2.80;;
11988;SDS011;6054;50.966;7.094;2023-11-19T08:57:14;14.63;;;2.90;;
11988;SDS011;6054;50.966;7.094;2023-11-19T08:59:41;18.70;;;2.92;;
11988;SDS011;6054;50.966;7.094;2023-11-19T09:02:10;14.68;;;2.70;;
11988;SDS011;6054;50.966;7.094;2023-11-19T09:04:37;17.67;;;3.22;;
11988;SDS011;6054;50.966;7.094;2023-11-19T09:07:04;15.00;;;3.78;;
11988;SDS011;6054;50.966;7.094;2023-11-19T09:09:32;17.02;;;2.80;;
11988;SDS011;6054;50.966;7.094;2023-11-19T09:12:00;14.57;;;2.90;;
11988;SDS011;6054;50.966;7.094;2023-11-19T09:14:28;18.52;;;3.10;;
11988;SDS011;6054;50.966;7.094;2023-11-19T09:16:55;16.38;;;3.10;;
11988;SDS011;6054;50.966;7.094;2023-11-19T09:19:23;19.83;;;3.58;;
11988;SDS011;6054;50.966;7.094;2023-11-19T09:21:50;16.85;;;2.95;;
11988;SDS011;6054;50.966;7.094;2023-11-19T09:24:18;18.02;;;3.72;;
11988;SDS011;6054;50.966;7.094;2023-11-19T09:26:46;10.27;;;2.55;;
11988;SDS011;6054;50.966;7.094;2023-11-19T09:29:13;15.77;;;2.70;;
11988;SDS011;6054;50.966;7.094;2023-11-19T09:31:40;14.48;;;2.95;;
11988;SDS011;6054;50.966;7.094;2023-11-19T09:34:07;17.52;;;3.00;;
11988;SDS011;6054;50.966;7.094;2023-11-19T09:36:34;21.70;;;4.10;;
11988;SDS011;6054;50.966;7.094;2023-11-19T09:39:03;15.38;;;3.63;;
11988;SDS011;6054;50.966;7.094;2023-11-19T09:41:30;14.65;;;3.00;;
11988;SDS011;6054;50.966;7.094;2023-11-19T09:44:01;15.60;;;3.15;;
11988;SDS011;6054;50.966;7.094;2023-11-19T09:46:27;12.57;;;3.15;;
11988;SDS011;6054;50.966;7.094;2023-11-19T09:48:56;19.35;;;3.00;;
11988;SDS011;6054;50.966;7.094;2023-11-19T09:51:25;18.63;;;3.55;;
11988;SDS011;6054;50.966;7.094;2023-11-19T09:53:52;13.90;;;3.15;;
11988;SDS011;6054;50.966;7.094;2023-11-19T09:56:20;16.45;;;3.45;;
11988;SDS011;6054;50.966;7.094;2023-11-19T09:58:54;16.30;;;3.50;;
11988;SDS011;6054;50.966;7.094;2023-11-19T10:01:22;14.35;;;3.17;;
11988;SDS011;6054;50.966;7.094;2023-11-19T10:03:51;19.70;;;3.70;;
11988;SDS011;6054;50.966;7.094;2023-11-19T10:06:21;16.90;;;3.63;;
11988;SDS011;6054;50.966;7.094;2023-11-19T10:08:48;15.23;;;2.97;;
11988;SDS011;6054;50.966;7.094;2023-11-19T10:11:15;23.33;;;4.20;;
11988;SDS011;6054;50.966;7.094;2023-11-19T10:13:43;16.85;;;3.63;;
11988;SDS011;6054;50.966;7.094;2023-11-19T10:16:15;12.55;;;2.60;;
11988;SDS011;6054;50.966;7.094;2023-11-19T10:18:48;19.45;;;3.97;;
11988;SDS011;6054;50.966;7.094;2023-11-19T10:21:17;12.38;;;4.28;;
11988;SDS011;6054;50.966;7.094;2023-11-19T10:23:47;14.30;;;2.97;;
11988;SDS011;6054;50.966;7.094;2023-11-19T10:26:15;14.30;;;3.58;;
11988;SDS011;6054;50.966;7.094;2023-11-19T10:28:42;13.18;;;3.50;;
11988;SDS011;6054;50.966;7.094;2023-11-19T10:31:11;21.55;;;4.13;;
11988;SDS011;6054;50.966;7.094;2023-11-19T10:33:38;14.38;;;2.90;;
11988;SDS011;6054;50.966;7.094;2023-11-19T10:36:07;14.00;;;2.95;;
11988;SDS011;6054;50.966;7.094;2023-11-19T10:38:34;19.33;;;3.47;;
11988;SDS011;6054;50.966;7.094;2023-11-19T10:41:01;10.98;;;2.75;;
11988;SDS011;6054;50.966;7.094;2023-11-19T10:43:31;14.93;;;2.78;;
11988;SDS011;6054;50.966;7.094;2023-11-19T10:46:10;13.65;;;3.92;;
11988;SDS011;6054;50.966;7.094;2023-11-19T10:48:38;17.10;;;2.83;;
11988;SDS011;6054;50.966;7.094;2023-11-19T10:51:07;14.57;;;2.65;;
11988;SDS011;6054;50.966;7.094;2023-11-19T10:53:37;17.92;;;3.05;;
11988;SDS011;6054;50.966;7.094;2023-11-19T10:56:05;16.27;;;3.42;;
11988;SDS011;6054;50.966;7.094;2023-11-19T10:58:37;19.58;;;3.53;;
11988;SDS011;6054;50.966;7.094;2023-11-19T11:01:11;14.48;;;2.75;;
11988;SDS011;6054;50.966;7.094;2023-11-19T11:03:41;16.20;;;4.05;;
11988;SDS011;6054;50.966;7.094;2023-11-19T11:06:12;15.55;;;2.80;;
11988;SDS011;6054;50.966;7.094;2023-11-19T11:08:39;16.73;;;3.65;;
11988;SDS011;6054;50.966;7.094;2023-11-19T11:11:07;13.15;;;2.90;;
11988;SDS011;6054;50.966;7.094;2023-11-19T11:13:37;12.13;;;2.70;;
11988;SDS011;6054;50.966;7.094;2023-11-19T11:16:08;17.33;;;3.67;;
11988;SDS011;6054;50.966;7.094;2023-11-19T11:18:36;15.95;;;3.10;;
11988;SDS011;6054;50.966;7.094;2023-11-19T11:21:04;13.85;;;3.03;;
11988;SDS011;6054;50.966;7.094;2023-11-19T11:23:41;12.85;;;3.03;;
11988;SDS011;6054;50.966;7.094;2023-11-19T11:29:26;14.25;;;3.63;;
11988;SDS011;6054;50.966;7.094;2023-11-19T11:32:03;11.07;;;2.70;;
11988;SDS011;6054;50.966;7.094;2023-11-19T11:34:49;10.48;;;2.45;;
11988;SDS011;6054;50.966;7.094;2023-11-19T11:37:29;13.93;;;3.00;;
11988;SDS011;6054;50.966;7.094;2023-11-19T11:40:00;14.45;;;2.67;;
11988;SDS011;6054;50.966;7.094;2023-11-19T11:42:35;16.83;;;3.58;;
11988;SDS011;6054;50.966;7.094;2023-11-19T11:45:05;18.70;;;2.92;;
11988;SDS011;6054;50.966;7.094;2023-11-19T11:50:36;15.50;;;2.45;;
11988;SDS011;6054;50.966;7.094;2023-11-19T11:53:18;11.25;;;2.55;;
11988;SDS011;6054;50.966;7.094;2023-11-19T11:55:58;12.57;;;2.45;;
11988;SDS011;6054;50.966;7.094;2023-11-19T11:58:31;16.70;;;3.00;;
11988;SDS011;6054;50.966;7.094;2023-11-19T12:01:01;11.57;;;2.55;;
11988;SDS011;6054;50.966;7.094;2023-11-19T12:03:31;12.07;;;3.10;;
11988;SDS011;6054;50.966;7.094;2023-11-19T12:05:58;12.90;;;2.20;;
11988;SDS011;6054;50.966;7.094;2023-11-19T12:08:28;10.20;;;2.28;;
11988;SDS011;6054;50.966;7.094;2023-11-19T12:10:57;13.15;;;2.70;;
11988;SDS011;6054;50.966;7.094;2023-11-19T12:16:18;11.75;;;2.40;;
11988;SDS011;6054;50.966;7.094;2023-11-19T12:18:47;10.68;;;2.40;;
11988;SDS011;6054;50.966;7.094;2023-11-19T12:21:27;9.88;;;2.15;;
11988;SDS011;6054;50.966;7.094;2023-11-19T12:23:54;9.25;;;1.90;;
11988;SDS011;6054;50.966;7.094;2023-11-19T12:26:32;8.40;;;2.30;;
11988;SDS011;6054;50.966;7.094;2023-11-19T12:29:00;10.43;;;2.63;;
11988;SDS011;6054;50.966;7.094;2023-11-19T12:31:28;11.70;;;2.55;;
11988;SDS011;6054;50.966;7.094;2023-11-19T12:33:57;10.10;;;2.15;;
11988;SDS011;6054;50.966;7.094;2023-11-19T12:36:25;10.88;;;3.13;;
11988;SDS011;6054;50.966;7.094;2023-11-19T12:38:52;5.78;;;2.58;;
11988;SDS011;6054;50.966;7.094;2023-11-19T12:41:18;14.40;;;3.13;;
11988;SDS011;6054;50.966;7.094;2023-11-19T12:43:49;8.23;;;2.25;;
11988;SDS011;6054;50.966;7.094;2023-11-19T12:46:17;9.32;;;2.45;;
11988;SDS011;6054;50.966;7.094;2023-11-19T12:48:44;10.30;;;2.13;;
11988;SDS011;6054;50.966;7.094;2023-11-19T12:51:12;8.50;;;2.63;;
11988;SDS011;6054;50.966;7.094;2023-11-19T12:53:47;14.38;;;2.65;;
11988;SDS011;6054;50.966;7.094;2023-11-19T12:56:15;10.35;;;2.22;;
11988;SDS011;6054;50.966;7.094;2023-11-19T12:58:41;12.13;;;3.10;;
11988;SDS011;6054;50.966;7.094;2023-11-19T13:01:10;11.57;;;2.45;;
11988;SDS011;6054;50.966;7.094;2023-11-19T13:03:43;9.57;;;2.75;;
11988;SDS011;6054;50.966;7.094;2023-11-19T13:06:13;8.50;;;3.05;;
11988;SDS011;6054;50.966;7.094;2023-11-19T13:08:46;11.43;;;2.20;;
11988;SDS011;6054;50.966;7.094;2023-11-19T13:11:15;8.93;;;2.42;;
11988;SDS011;6054;50.966;7.094;2023-11-19T13:13:57;10.80;;;2.17;;
11988;SDS011;6054;50.966;7.094;2023-11-19T13:16:26;9.35;;;2.15;;
11988;SDS011;6054;50.966;7.094;2023-11-19T13:18:54;10.57;;;2.45;;
11988;SDS011;6054;50.966;7.094;2023-11-19T13:21:24;9.90;;;2.17;;
11988;SDS011;6054;50.966;7.094;2023-11-19T13:23:51;9.90;;;2.25;;
11988;SDS011;6054;50.966;7.094;2023-11-19T13:26:17;9.30;;;1.98;;
11988;SDS011;6054;50.966;7.094;2023-11-19T13:28:44;12.20;;;2.47;;
11988;SDS011;6054;50.966;7.094;2023-11-19T13:31:14;8.27;;;2.22;;
11988;SDS011;6054;50.966;7.094;2023-11-19T13:33:42;7.40;;;1.98;;
11988;SDS011;6054;50.966;7.094;2023-11-19T13:36:09;11.00;;;2.00;;
11988;SDS011;6054;50.966;7.094;2023-11-19T13:38:36;11.27;;;2.40;;
11988;SDS011;6054;50.966;7.094;2023-11-19T13:41:04;9.85;;;2.20;;
11988;SDS011;6054;50.966;7.094;2023-11-19T13:43:31;7.03;;;1.88;;
11988;SDS011;6054;50.966;7.094;2023-11-19T13:45:58;11.70;;;3.00;;
11988;SDS011;6054;50.966;7.094;2023-11-19T13:48:26;9.73;;;2.40;;
11988;SDS011;6054;50.966;7.094;2023-11-19T13:50:55;12.07;;;3.00;;
11988;SDS011;6054;50.966;7.094;2023-11-19T13:53:22;12.38;;;2.67;;
11988;SDS011;6054;50.966;7.094;2023-11-19T13:55:49;13.70;;;2.63;;
11988;SDS011;6054;50.966;7.094;2023-11-19T13:58:15;13.00;;;2.40;;
11988;SDS011;6054;50.966;7.094;2023-11-19T14:00:45;12.82;;;2.75;;
11988;SDS011;6054;50.966;7.094;2023-11-19T14:03:12;20.67;;;2.70;;
11988;SDS011;6054;50.966;7.094;2023-11-19T14:05:39;10.57;;;2.30;;
11988;SDS011;6054;50.966;7.094;2023-11-19T14:08:10;13.07;;;2.78;;
11988;SDS011;6054;50.966;7.094;2023-11-19T14:10:37;11.77;;;2.67;;
11988;SDS011;6054;50.966;7.094;2023-11-19T14:13:05;17.48;;;2.65;;
11988;SDS011;6054;50.966;7.094;2023-11-19T14:15:32;14.48;;;3.00;;
11988;SDS011;6054;50.966;7.094;2023-11-19T14:17:59;12.82;;;2.22;;
11988;SDS011;6054;50.966;7.094;2023-11-19T14:20:26;14.15;;;2.92;;
11988;SDS011;6054;50.966;7.094;2023-11-19T14:22:52;12.50;;;2.42;;
11988;SDS011;6054;50.966;7.094;2023-11-19T14:25:20;11.52;;;2.97;;
11988;SDS011;6054;50.966;7.094;2023-11-19T14:27:48;12.88;;;2.50;;
11988;SDS011;6054;50.966;7.094;2023-11-19T14:30:18;12.48;;;3.00;;
11988;SDS011;6054;50.966;7.094;2023-11-19T14:32:45;13.95;;;3.47;;
11988;SDS011;6054;50.966;7.094;2023-11-19T14:35:13;12.05;;;2.88;;
11988;SDS011;6054;50.966;7.094;2023-11-19T14:37:40;12.85;;;2.20;;
11988;SDS011;6054;50.966;7.094;2023-11-19T14:40:07;12.80;;;2.83;;
11988;SDS011;6054;50.966;7.094;2023-11-19T14:42:37;11.40;;;2.50;;
11988;SDS011;6054;50.966;7.094;2023-11-19T14:45:05;9.63;;;2.63;;
11988;SDS011;6054;50.966;7.094;2023-11-19T14:47:36;11.23;;;2.70;;
11988;SDS011;6054;50.966;7.094;2023-11-19T14:50:03;11.90;;;2.80;;
11988;SDS011;6054;50.966;7.094;2023-11-19T14:52:31;11.23;;;2.03;;
11988;SDS011;6054;50.966;7.094;2023-11-19T14:54:58;13.05;;;2.53;;
11988;SDS011;6054;50.966;7.094;2023-11-19T14:57:25;12.55;;;2.35;;
11988;SDS011;6054;50.966;7.094;2023-11-19T14:59:53;9.32;;;2.53;;
11988;SDS011;6054;50.966;7.094;2023-11-19T15:02:20;9.27;;;1.88;;
11988;SDS011;6054;50.966;7.094;2023-11-19T15:04:47;10.65;;;2.42;;
11988;SDS011;6054;50.966;7.094;2023-11-19T15:07:14;12.70;;;2.75;;
11988;SDS011;6054;50.966;7.094;2023-11-19T15:09:41;9.20;;;2.20;;
11988;SDS011;6054;50.966;7.094;2023-11-19T15:12:08;14.30;;;3.05;;
11988;SDS011;6054;50.966;7.094;2023-11-19T15:14:34;9.32;;;2.10;;
11988;SDS011;6054;50.966;7.094;2023-11-19T15:17:04;12.63;;;2.53;;
11988;SDS011;6054;50.966;7.094;2023-11-19T15:19:34;12.48;;;2.72;;
11988;SDS011;6054;50.966;7.094;2023-11-19T15:22:01;7.22;;;1.70;;
11988;SDS011;6054;50.966;7.094;2023-11-19T15:24:30;11.80;;;2.40;;
11988;SDS011;6054;50.966;7.094;2023-11-19T15:26:57;9.70;;;2.05;;
11988;SDS011;6054;50.966;7.094;2023-11-19T15:29:24;7.85;;;2.63;;
11988;SDS011;6054;50.966;7.094;2023-11-19T15:31:51;14.05;;;2.70;;
11988;SDS011;6054;50.966;7.094;2023-11-19T15:34:18;9.70;;;2.40;;
11988;SDS011;6054;50.966;7.094;2023-11-19T15:36:45;14.52;;;3.15;;
11988;SDS011;6054;50.966;7.094;2023-11-19T15:39:13;10.75;;;2.45;;
11988;SDS011;6054;50.966;7.094;2023-11-19T15:41:40;14.50;;;3.58;;
11988;SDS011;6054;50.966;7.094;2023-11-19T15:44:06;10.68;;;2.10;;
11988;SDS011;6054;50.966;7.094;2023-11-19T15:46:33;10.63;;;2.97;;
11988;SDS011;6054;50.966;7.094;2023-11-19T15:49:00;10.85;;;2.67;;
11988;SDS011;6054;50.966;7.094;2023-11-19T15:51:29;13.20;;;3.40;;
11988;SDS011;6054;50.966;7.094;2023-11-19T15:53:57;12.13;;;2.35;;
11988;SDS011;6054;50.966;7.094;2023-11-19T15:56:23;12.40;;;2.60;;
11988;SDS011;6054;50.966;7.094;2023-11-19T15:58:50;12.98;;;2.95;;
11988;SDS011;6054;50.966;7.094;2023-11-19T16:01:17;13.80;;;2.47;;
11988;SDS011;6054;50.966;7.094;2023-11-19T16:03:44;19.23;;;2.88;;
11988;SDS011;6054;50.966;7.094;2023-11-19T16:06:11;14.95;;;3.13;;
11988;SDS011;6054;50.966;7.094;2023-11-19T16:08:39;9.55;;;2.67;;
11988;SDS011;6054;50.966;7.094;2023-11-19T16:11:05;14.02;;;2.53;;
11988;SDS011;6054;50.966;7.094;2023-11-19T16:13:34;12.05;;;2.53;;
11988;SDS011;6054;50.966;7.094;2023-11-19T16:16:01;13.73;;;2.22;;
11988;SDS011;6054;50.966;7.094;2023-11-19T16:18:28;8.88;;;2.13;;
11988;SDS011;6054;50.966;7.094;2023-11-19T16:20:55;10.70;;;2.40;;
11988;SDS011;6054;50.966;7.094;2023-11-19T16:23:21;15.60;;;2.88;;
11988;SDS011;6054;50.966;7.094;2023-11-19T16:25:49;13.38;;;2.60;;
11988;SDS011;6054;50.966;7.094;2023-11-19T16:28:16;15.05;;;2.50;;
11988;SDS011;6054;50.966;7.094;2023-11-19T16:30:43;9.20;;;1.98;;
11988;SDS011;6054;50.966;7.094;2023-11-19T16:33:10;13.23;;;2.45;;
11988;SDS011;6054;50.966;7.094;2023-11-19T16:35:37;14.95;;;2.60;;
11988;SDS011;6054;50.966;7.094;2023-11-19T16:38:04;14.38;;;3.00;;
11988;SDS011;6054;50.966;7.094;2023-11-19T16:40:31;12.32;;;2.58;;
11988;SDS011;6054;50.966;7.094;2023-11-19T16:43:04;13.10;;;2.47;;
11988;SDS011;6054;50.966;7.094;2023-11-19T16:45:31;7.30;;;2.47;;
11988;SDS011;6054;50.966;7.094;2023-11-19T16:47:59;7.10;;;1.83;;
11988;SDS011;6054;50.966;7.094;2023-11-19T16:50:26;10.68;;;2.25;;
11988;SDS011;6054;50.966;7.094;2023-11-19T16:52:53;15.10;;;2.60;;
11988;SDS011;6054;50.966;7.094;2023-11-19T16:55:20;10.00;;;2.33;;
11988;SDS011;6054;50.966;7.094;2023-11-19T16:57:47;14.35;;;2.95;;
11988;SDS011;6054;50.966;7.094;2023-11-19T17:00:15;12.30;;;2.72;;
11988;SDS011;6054;50.966;7.094;2023-11-19T17:02:43;10.23;;;2.20;;
11988;SDS011;6054;50.966;7.094;2023-11-19T17:05:10;9.32;;;2.30;;
11988;SDS011;6054;50.966;7.094;2023-11-19T17:07:37;13.40;;;4.32;;
11988;SDS011;6054;50.966;7.094;2023-11-19T17:10:04;11.45;;;2.80;;
11988;SDS011;6054;50.966;7.094;2023-11-19T17:12:33;11.90;;;2.80;;
11988;SDS011;6054;50.966;7.094;2023-11-19T17:15:00;13.80;;;2.58;;
11988;SDS011;6054;50.966;7.094;2023-11-19T17:17:31;11.45;;;2.83;;
11988;SDS011;6054;50.966;7.094;2023-11-19T17:20:00;12.85;;;2.35;;
11988;SDS011;6054;50.966;7.094;2023-11-19T17:22:29;13.60;;;2.38;;
11988;SDS011;6054;50.966;7.094;2023-11-19T17:25:00;11.45;;;2.38;;
11988;SDS011;6054;50.966;7.094;2023-11-19T17:27:27;14.15;;;2.53;;
11988;SDS011;6054;50.966;7.094;2023-11-19T17:29:54;15.30;;;2.53;;
11988;SDS011;6054;50.966;7.094;2023-11-19T17:32:21;10.18;;;2.75;;
11988;SDS011;6054;50.966;7.094;2023-11-19T17:34:53;8.63;;;2.72;;
11988;SDS011;6054;50.966;7.094;2023-11-19T17:37:19;12.50;;;2.60;;
11988;SDS011;6054;50.966;7.094;2023-11-19T17:39:46;10.65;;;2.33;;
11988;SDS011;6054;50.966;7.094;2023-11-19T17:42:13;9.55;;;2.25;;
11988;SDS011;6054;50.966;7.094;2023-11-19T17:44:40;12.27;;;3.22;;
11988;SDS011;6054;50.966;7.094;2023-11-19T17:47:07;11.57;;;2.85;;
11988;SDS011;6054;50.966;7.094;2023-11-19T17:49:34;7.95;;;2.28;;
11988;SDS011;6054;50.966;7.094;2023-11-19T17:52:02;8.10;;;2.15;;
11988;SDS011;6054;50.966;7.094;2023-11-19T17:54:29;16.45;;;3.00;;
11988;SDS011;6054;50.966;7.094;2023-11-19T17:56:56;9.68;;;2.10;;
11988;SDS011;6054;50.966;7.094;2023-11-19T17:59:23;13.07;;;2.47;;
11988;SDS011;6054;50.966;7.094;2023-11-19T18:01:50;12.02;;;2.80;;
11988;SDS011;6054;50.966;7.094;2023-11-19T18:04:21;12.88;;;2.65;;
11988;SDS011;6054;50.966;7.094;2023-11-19T18:06:48;15.18;;;2.33;;
11988;SDS011;6054;50.966;7.094;2023-11-19T18:09:17;9.07;;;2.45;;
11988;SDS011;6054;50.966;7.094;2023-11-19T18:11:43;10.32;;;2.55;;
11988;SDS011;6054;50.966;7.094;2023-11-19T18:14:10;9.00;;;2.13;;
11988;SDS011;6054;50.966;7.094;2023-11-19T18:16:37;8.88;;;2.42;;
11988;SDS011;6054;50.966;7.094;2023-11-19T18:19:05;8.43;;;1.80;;
11988;SDS011;6054;50.966;7.094;2023-11-19T18:21:32;7.78;;;2.60;;
11988;SDS011;6054;50.966;7.094;2023-11-19T18:23:58;18.35;;;3.38;;
11988;SDS011;6054;50.966;7.094;2023-11-19T18:26:27;11.40;;;2.28;;
11988;SDS011;6054;50.966;7.094;2023-11-19T18:28:53;12.88;;;2.60;;
11988;SDS011;6054;50.966;7.094;2023-11-19T18:31:20;12.23;;;2.60;;
11988;SDS011;6054;50.966;7.094;2023-11-19T18:33:47;12.35;;;2.65;;
11988;SDS011;6054;50.966;7.094;2023-11-19T18:36:14;10.73;;;2.00;;
11988;SDS011;6054;50.966;7.094;2023-11-19T18:38:42;8.57;;;2.00;;
11988;SDS011;6054;50.966;7.094;2023-11-19T18:41:09;7.70;;;2.35;;
11988;SDS011;6054;50.966;7.094;2023-11-19T18:43:39;11.55;;;2.58;;
11988;SDS011;6054;50.966;7.094;2023-11-19T18:46:06;10.45;;;2.42;;
11988;SDS011;6054;50.966;7.094;2023-11-19T18:48:34;3.78;;;1.73;;
11988;SDS011;6054;50.966;7.094;2023-11-19T18:51:02;9.57;;;1.90;;
11988;SDS011;6054;50.966;7.094;2023-11-19T18:53:29;7.88;;;2.20;;
11988;SDS011;6054;50.966;7.094;2023-11-19T18:55:57;6.65;;;2.10;;
11988;SDS011;6054;50.966;7.094;2023-11-19T18:58:24;12.57;;;2.00;;
11988;SDS011;6054;50.966;7.094;2023-11-19T19:00:58;9.30;;;1.90;;
11988;SDS011;6054;50.966;7.094;2023-11-19T19:03:25;11.02;;;2.10;;
11988;SDS011;6054;50.966;7.094;2023-11-19T19:05:56;10.95;;;2.15;;
11988;SDS011;6054;50.966;7.094;2023-11-19T19:08:25;7.97;;;2.10;;
11988;SDS011;6054;50.966;7.094;2023-11-19T19:10:52;9.45;;;1.65;;
11988;SDS011;6054;50.966;7.094;2023-11-19T19:13:18;14.52;;;2.13;;
11988;SDS011;6054;50.966;7.094;2023-11-19T19:15:45;8.18;;;2.03;;
11988;SDS011;6054;50.966;7.094;2023-11-19T19:18:14;7.95;;;1.98;;
11988;SDS011;6054;50.966;7.094;2023-11-19T19:20:40;8.73;;;2.17;;
11988;SDS011;6054;50.966;7.094;2023-11-19T19:23:08;10.13;;;1.88;;
11988;SDS011;6054;50.966;7.094;2023-11-19T19:25:35;7.85;;;2.03;;
11988;SDS011;6054;50.966;7.094;2023-11-19T19:28:04;7.65;;;2.15;;
11988;SDS011;6054;50.966;7.094;2023-11-19T19:30:32;8.20;;;2.00;;
11988;SDS011;6054;50.966;7.094;2023-11-19T19:32:58;8.82;;;1.80;;
11988;SDS011;6054;50.966;7.094;2023-11-19T19:35:27;7.32;;;1.80;;
11988;SDS011;6054;50.966;7.094;2023-11-19T19:37:55;11.95;;;1.98;;
11988;SDS011;6054;50.966;7.094;2023-11-19T19:40:23;5.75;;;1.70;;
11988;SDS011;6054;50.966;7.094;2023-11-19T19:42:50;3.42;;;1.20;;
11988;SDS011;6054;50.966;7.094;2023-11-19T19:45:17;6.40;;;1.38;;
11988;SDS011;6054;50.966;7.094;2023-11-19T19:47:44;7.00;;;1.45;;
11988;SDS011;6054;50.966;7.094;2023-11-19T19:50:11;8.20;;;1.60;;
11988;SDS011;6054;50.966;7.094;2023-11-19T19:52:40;8.45;;;2.00;;
11988;SDS011;6054;50.966;7.094;2023-11-19T19:55:07;7.47;;;1.75;;
11988;SDS011;6054;50.966;7.094;2023-11-19T19:57:35;6.95;;;1.42;;
11988;SDS011;6054;50.966;7.094;2023-11-19T20:00:02;10.40;;;1.38;;
11988;SDS011;6054;50.966;7.094;2023-11-19T20:02:34;6.32;;;1.77;;
11988;SDS011;6054;50.966;7.094;2023-11-19T20:05:01;7.13;;;1.42;;
11988;SDS011;6054;50.966;7.094;2023-11-19T20:07:29;3.83;;;1.58;;
11988;SDS011;6054;50.966;7.094;2023-11-19T20:09:59;8.65;;;1.60;;
11988;SDS011;6054;50.966;7.094;2023-11-19T20:12:31;4.32;;;1.70;;
11988;SDS011;6054;50.966;7.094;2023-11-19T20:14:58;5.20;;;1.60;;
11988;SDS011;6054;50.966;7.094;2023-11-19T20:17:26;10.18;;;1.70;;